Time;durP1;ratioP1;P1;durP2;ratioP2;P2;SDS_P1;SDS_P2;PMS_P1;PMS_P2;Temp;Humidity;BMP_temperature;BMP_pressure;BME280_temperature;BME280_humidity;BME280_pressure;Samples;Min_cycle;Max_cycle;Signal;HPM_P1;HPM_P2
2022/02/18 00:01:44;;;;;;;15.07;4.77;;;10.70;99.90;;;;;;5073235;28;20498;-91
2022/02/18 00:04:12;;;;;;;23.43;5.47;;;10.80;99.90;;;;;;5073556;28;20485;-91
2022/02/18 00:06:43;;;;;;;18.17;5.70;;;10.70;99.90;;;;;;5073691;28;20449;-91
2022/02/18 00:09:14;;;;;;;15.57;3.93;;;10.90;99.90;;;;;;5077403;28;20428;-92
2022/02/18 00:11:44;;;;;;;17.63;5.40;;;10.80;99.90;;;;;;5078127;28;20472;-90
2022/02/18 00:14:12;;;;;;;13.17;5.10;;;10.70;99.90;;;;;;5072867;28;20463;-91
2022/02/18 00:16:44;;;;;;;19.70;5.87;;;10.50;99.90;;;;;;5069683;28;20453;-90
2022/02/18 00:19:12;;;;;;;21.07;4.40;;;10.50;99.90;;;;;;5070912;28;20475;-91
2022/02/18 00:21:39;;;;;;;24.67;6.10;;;10.50;99.90;;;;;;5070720;28;20499;-90
2022/02/18 00:24:14;;;;;;;24.43;5.17;;;10.40;99.90;;;;;;5072983;28;20480;-89
2022/02/18 00:26:48;;;;;;;20.83;6.03;;;10.40;99.90;;;;;;5072948;28;20519;-90
2022/02/18 00:29:20;;;;;;;18.87;4.53;;;10.60;99.90;;;;;;5067864;28;20546;-90
2022/02/18 00:31:49;;;;;;;19.33;4.27;;;10.50;99.90;;;;;;5066980;28;20430;-90
2022/02/18 00:34:23;;;;;;;18.30;4.53;;;10.50;99.90;;;;;;5067217;28;20540;-90
2022/02/18 00:36:50;;;;;;;17.63;5.50;;;10.40;99.90;;;;;;5070309;28;20452;-90
2022/02/18 00:39:28;;;;;;;12.60;4.10;;;10.50;99.90;;;;;;5077717;28;20445;-91
2022/02/18 00:41:56;;;;;;;20.70;4.30;;;10.50;99.90;;;;;;5078058;28;20523;-90
2022/02/18 00:44:24;;;;;;;17.13;4.53;;;10.50;99.90;;;;;;5077399;28;20533;-90
2022/02/18 00:46:55;;;;;;;18.87;5.93;;;10.60;99.90;;;;;;5070791;28;20468;-90
2022/02/18 00:49:23;;;;;;;14.60;5.27;;;10.60;99.90;;;;;;5075861;28;20444;-90
2022/02/18 00:51:57;;;;;;;22.93;5.70;;;10.60;99.90;;;;;;5077503;28;20470;-90
2022/02/18 00:54:25;;;;;;;19.50;5.17;;;10.60;99.90;;;;;;5053386;28;20521;-89
2022/02/18 00:56:54;;;;;;;16.17;4.27;;;10.60;99.90;;;;;;5047382;28;20461;-90
2022/02/18 00:59:23;;;;;;;17.17;4.10;;;10.60;99.90;;;;;;5045069;28;21019;-90
2022/02/18 01:01:53;;;;;;;12.30;3.97;;;10.60;99.90;;;;;;5045308;28;20481;-90
2022/02/18 01:04:20;;;;;;;11.17;4.00;;;10.60;99.90;;;;;;5048134;28;20485;-89
2022/02/18 01:06:50;;;;;;;18.60;4.83;;;10.70;99.90;;;;;;5044543;28;20442;-89
2022/02/18 01:09:18;;;;;;;14.27;4.03;;;10.70;99.90;;;;;;5047179;28;20532;-90
2022/02/18 01:11:45;;;;;;;17.20;4.00;;;10.80;99.90;;;;;;5046141;28;20482;-90
2022/02/18 01:14:13;;;;;;;31.37;5.10;;;10.80;99.90;;;;;;5048399;28;20441;-90
2022/02/18 01:16:41;;;;;;;12.63;3.73;;;10.80;99.90;;;;;;5057202;28;20417;-90
2022/02/18 01:19:10;;;;;;;11.33;3.53;;;11.00;99.90;;;;;;5055308;28;20425;-91
2022/02/18 01:21:37;;;;;;;11.07;3.97;;;11.00;99.90;;;;;;5052320;28;20549;-89
2022/02/18 01:24:09;;;;;;;9.90;3.73;;;10.90;99.90;;;;;;5055198;28;20432;-89
2022/02/18 01:26:39;;;;;;;12.43;3.70;;;10.90;99.90;;;;;;5051556;28;20434;-90
2022/02/18 01:29:08;;;;;;;9.63;3.97;;;10.80;99.90;;;;;;5052971;28;20441;-90
2022/02/18 01:31:38;;;;;;;17.73;4.50;;;10.90;99.90;;;;;;5053532;28;20654;-90
2022/02/18 01:34:05;;;;;;;19.90;5.07;;;10.90;99.90;;;;;;5049178;28;20427;-90
2022/02/18 01:36:38;;;;;;;16.87;4.33;;;10.90;99.90;;;;;;5052979;28;20438;-89
2022/02/18 01:39:05;;;;;;;23.17;4.90;;;10.80;99.90;;;;;;5055385;28;20373;-89
2022/02/18 01:41:34;;;;;;;14.60;4.30;;;10.90;99.90;;;;;;5055491;28;20472;-89
2022/02/18 01:44:03;;;;;;;10.70;3.90;;;11.00;99.90;;;;;;5050609;28;20444;-89
2022/02/18 01:46:31;;;;;;;17.23;4.07;;;11.00;99.90;;;;;;5054369;28;20482;-89
2022/02/18 01:48:59;;;;;;;14.47;4.07;;;10.90;99.90;;;;;;5052571;28;20560;-90
2022/02/18 01:51:29;;;;;;;11.37;4.23;;;10.90;99.90;;;;;;5056643;28;20469;-90
2022/02/18 01:56:34;;;;;;;10.93;4.00;;;10.90;99.90;;;;;;5181163;22;20515;-90
2022/02/18 01:59:04;;;;;;;18.17;3.90;;;10.90;99.90;;;;;;5080639;28;20467;-89
2022/02/18 02:01:31;;;;;;;12.87;4.17;;;10.80;99.90;;;;;;5070671;28;20436;-89
2022/02/18 02:04:04;;;;;;;21.50;5.17;;;10.80;99.90;;;;;;5077283;28;20404;-90
2022/02/18 02:06:32;;;;;;;17.03;4.30;;;10.80;99.90;;;;;;5070417;28;20538;-89
2022/02/18 02:09:00;;;;;;;11.97;3.60;;;10.80;99.90;;;;;;5074271;28;20519;-89
2022/02/18 02:11:27;;;;;;;13.80;3.80;;;10.80;99.90;;;;;;5074095;28;20485;-90
2022/02/18 02:14:04;;;;;;;12.77;4.07;;;10.80;99.90;;;;;;5079326;28;20467;-90
2022/02/18 02:16:34;;;;;;;15.00;3.63;;;10.80;99.90;;;;;;5078873;28;20427;-90
2022/02/18 02:19:12;;;;;;;11.77;3.47;;;10.80;99.90;;;;;;5074193;28;20429;-90
2022/02/18 02:21:45;;;;;;;15.00;4.80;;;10.70;99.90;;;;;;5067789;28;20456;-89
2022/02/18 02:24:14;;;;;;;18.70;4.93;;;10.70;99.90;;;;;;5068444;28;20465;-91
2022/02/18 02:26:46;;;;;;;13.80;3.77;;;10.60;99.90;;;;;;5071637;28;20455;-92
2022/02/18 02:29:17;;;;;;;12.73;4.33;;;10.60;99.90;;;;;;5070142;28;20423;-90
2022/02/18 02:31:45;;;;;;;19.63;5.40;;;10.60;99.90;;;;;;5075219;28;20475;-90
2022/02/18 02:34:14;;;;;;;16.77;3.83;;;10.70;99.90;;;;;;5069766;28;20437;-89
2022/02/18 02:36:43;;;;;;;14.17;4.77;;;10.60;99.90;;;;;;5068897;28;20459;-91
2022/02/18 02:39:11;;;;;;;17.90;4.03;;;10.60;99.90;;;;;;5067445;28;20552;-91
2022/02/18 02:41:40;;;;;;;18.40;4.27;;;10.70;99.90;;;;;;5075561;28;20528;-90
2022/02/18 02:44:16;;;;;;;11.27;3.07;;;10.60;99.90;;;;;;5079292;28;20470;-89
2022/02/18 02:46:45;;;;;;;13.77;3.37;;;10.50;99.90;;;;;;5076029;28;20450;-89
2022/02/18 02:49:14;;;;;;;15.37;3.97;;;10.50;99.90;;;;;;5073844;28;20449;-90
2022/02/18 02:51:43;;;;;;;12.77;3.80;;;10.50;99.90;;;;;;5069487;28;20469;-90
2022/02/18 02:54:14;;;;;;;13.33;2.90;;;10.50;99.90;;;;;;5079781;28;20437;-91
2022/02/18 02:56:44;;;;;;;17.33;4.53;;;10.60;99.90;;;;;;5077292;28;20448;-91
2022/02/18 02:59:11;;;;;;;11.23;3.17;;;10.50;99.90;;;;;;5073121;28;20507;-90
2022/02/18 03:01:38;;;;;;;15.20;4.00;;;10.40;99.90;;;;;;5098780;22;20475;-86
2022/02/18 03:04:05;;;;;;;14.47;4.87;;;10.40;99.90;;;;;;5059668;28;20498;-85
2022/02/18 03:06:32;;;;;;;18.30;4.50;;;10.40;99.90;;;;;;5061402;28;20488;-85
2022/02/18 03:08:59;;;;;;;15.47;3.90;;;10.40;99.90;;;;;;5061518;28;20454;-85
2022/02/18 03:11:26;;;;;;;17.47;3.83;;;10.40;99.90;;;;;;5062170;28;20539;-85
2022/02/18 03:13:55;;;;;;;14.10;4.00;;;10.40;99.90;;;;;;5062191;28;20472;-85
2022/02/18 03:16:22;;;;;;;12.63;3.70;;;10.30;99.90;;;;;;5062053;28;20472;-85
2022/02/18 03:18:50;;;;;;;14.30;4.00;;;10.20;99.90;;;;;;5061594;28;20560;-85
2022/02/18 03:21:17;;;;;;;10.63;3.40;;;10.20;99.90;;;;;;5060946;28;20536;-84
2022/02/18 03:23:46;;;;;;;15.93;3.77;;;10.20;99.90;;;;;;5061329;28;20496;-85
2022/02/18 03:26:13;;;;;;;16.53;3.67;;;10.10;99.90;;;;;;5062847;28;20539;-85
2022/02/18 03:28:40;;;;;;;14.87;3.60;;;10.20;99.90;;;;;;5062447;28;20475;-85
2022/02/18 03:31:09;;;;;;;15.00;4.20;;;10.20;99.90;;;;;;5063055;28;20485;-85
2022/02/18 03:33:37;;;;;;;16.70;3.83;;;10.10;99.90;;;;;;5063024;28;20443;-85
2022/02/18 03:36:05;;;;;;;12.20;4.30;;;10.10;99.90;;;;;;5060933;28;20520;-85
2022/02/18 03:38:32;;;;;;;18.37;3.17;;;10.10;99.90;;;;;;5061345;28;20498;-85
2022/02/18 03:40:59;;;;;;;16.10;3.80;;;10.10;99.90;;;;;;5063527;28;20831;-85
2022/02/18 03:43:26;;;;;;;10.53;3.27;;;10.10;99.90;;;;;;5063121;28;20964;-86
2022/02/18 03:45:52;;;;;;;12.33;4.23;;;10.10;99.90;;;;;;5062773;28;20555;-84
2022/02/18 03:48:21;;;;;;;11.23;3.00;;;10.10;99.90;;;;;;5062640;28;20506;-85
2022/02/18 03:50:48;;;;;;;15.90;4.27;;;10.00;99.90;;;;;;5061465;28;20444;-84
2022/02/18 03:53:15;;;;;;;19.23;4.77;;;10.00;99.90;;;;;;5060946;28;20453;-84
2022/02/18 03:55:42;;;;;;;16.07;3.73;;;10.10;99.90;;;;;;5062333;28;20564;-87
2022/02/18 03:58:10;;;;;;;12.60;3.60;;;10.00;99.90;;;;;;5061578;28;20516;-84
2022/02/18 04:00:37;;;;;;;10.50;3.07;;;10.10;99.90;;;;;;5062067;28;20457;-84
2022/02/18 04:03:04;;;;;;;13.47;3.90;;;10.10;99.90;;;;;;5065689;28;20479;-83
2022/02/18 04:05:34;;;;;;;11.83;3.03;;;10.10;99.90;;;;;;5058808;28;20480;-83
2022/02/18 04:08:01;;;;;;;12.90;3.90;;;10.10;99.90;;;;;;5057880;28;20540;-84
2022/02/18 04:10:28;;;;;;;8.60;2.60;;;10.10;99.90;;;;;;5060690;28;20502;-85
2022/02/18 04:12:54;;;;;;;12.33;3.20;;;10.10;99.90;;;;;;5060441;28;20479;-85
2022/02/18 04:15:21;;;;;;;13.40;3.17;;;10.10;99.90;;;;;;5060244;28;20487;-85
2022/02/18 04:17:48;;;;;;;15.20;4.40;;;10.20;99.90;;;;;;5060796;28;20455;-85
2022/02/18 04:20:15;;;;;;;11.37;3.13;;;10.20;99.90;;;;;;5060777;28;20543;-85
2022/02/18 04:22:43;;;;;;;11.17;3.00;;;10.20;99.90;;;;;;5061313;28;20518;-85
2022/02/18 04:25:10;;;;;;;9.07;3.20;;;10.20;99.90;;;;;;5069897;28;20423;-86
2022/02/18 04:27:37;;;;;;;14.87;3.27;;;10.20;99.90;;;;;;5076882;28;20428;-86
2022/02/18 04:30:06;;;;;;;18.67;4.10;;;10.30;99.90;;;;;;5067517;28;20434;-86
2022/02/18 04:32:33;;;;;;;17.10;3.40;;;10.30;99.90;;;;;;5060718;28;20472;-86
2022/02/18 04:35:00;;;;;;;13.50;3.50;;;10.20;99.90;;;;;;5060406;28;20531;-85
2022/02/18 04:37:27;;;;;;;12.53;3.50;;;10.10;99.90;;;;;;5061141;28;20814;-87
2022/02/18 04:39:55;;;;;;;10.33;3.20;;;10.10;99.90;;;;;;5065290;28;20476;-85
2022/02/18 04:42:22;;;;;;;12.83;3.97;;;10.10;99.90;;;;;;5061838;28;20511;-85
2022/02/18 04:44:49;;;;;;;15.87;3.73;;;10.10;99.90;;;;;;5067474;28;20491;-85
2022/02/18 04:47:15;;;;;;;8.93;3.10;;;10.20;99.90;;;;;;5067373;28;20500;-85
2022/02/18 04:49:43;;;;;;;15.60;3.60;;;10.20;99.90;;;;;;5066268;28;20423;-85
2022/02/18 04:52:10;;;;;;;10.07;2.90;;;10.20;99.90;;;;;;5060980;28;20501;-85
2022/02/18 04:54:37;;;;;;;8.27;3.57;;;10.20;99.90;;;;;;5061009;28;20448;-85
2022/02/18 04:57:05;;;;;;;12.53;4.27;;;10.30;99.90;;;;;;5060702;28;20534;-85
2022/02/18 04:59:32;;;;;;;15.77;3.23;;;10.30;99.90;;;;;;5060973;28;20456;-85
2022/02/18 05:01:59;;;;;;;14.43;3.87;;;10.30;99.90;;;;;;5060953;28;20540;-84
2022/02/18 05:04:26;;;;;;;19.70;4.90;;;10.20;99.90;;;;;;5059932;28;20520;-85
2022/02/18 05:06:53;;;;;;;17.30;3.80;;;10.10;99.90;;;;;;5060014;28;20480;-85
2022/02/18 05:09:19;;;;;;;11.20;3.77;;;10.10;99.90;;;;;;5059949;28;20419;-85
2022/02/18 05:11:46;;;;;;;15.80;3.60;;;10.20;99.90;;;;;;5059247;28;20487;-85
2022/02/18 05:14:14;;;;;;;11.03;3.10;;;10.20;99.90;;;;;;5059510;28;20479;-85
2022/02/18 05:16:42;;;;;;;10.73;3.10;;;10.30;99.90;;;;;;5061103;28;20532;-85
2022/02/18 05:19:10;;;;;;;14.67;3.40;;;10.30;99.90;;;;;;5061995;28;20464;-85
2022/02/18 05:21:37;;;;;;;12.67;3.77;;;10.40;99.90;;;;;;5066849;28;20456;-85
2022/02/18 05:24:05;;;;;;;12.63;4.60;;;10.40;99.90;;;;;;5078476;28;20435;-85
2022/02/18 05:26:32;;;;;;;11.67;3.03;;;10.30;99.90;;;;;;5080406;28;20537;-85
2022/02/18 05:28:59;;;;;;;39.03;5.10;;;10.30;99.90;;;;;;5066865;28;20908;-85
2022/02/18 05:31:27;;;;;;;12.83;4.50;;;10.30;99.90;;;;;;5065624;28;20449;-85
2022/02/18 05:33:54;;;;;;;12.40;3.00;;;10.30;99.90;;;;;;5071998;28;20475;-86
2022/02/18 05:36:21;;;;;;;15.20;3.50;;;10.30;99.90;;;;;;5072155;28;20447;-85
2022/02/18 05:38:48;;;;;;;11.53;3.23;;;10.30;99.90;;;;;;5064562;28;20544;-85
2022/02/18 05:41:17;;;;;;;17.23;3.80;;;10.30;99.90;;;;;;5064045;28;20434;-86
2022/02/18 05:43:44;;;;;;;9.47;3.47;;;10.30;99.90;;;;;;5065315;28;20468;-84
2022/02/18 05:46:11;;;;;;;10.73;3.70;;;10.20;99.90;;;;;;5064893;28;20595;-85
2022/02/18 05:48:40;;;;;;;11.43;4.00;;;10.30;99.90;;;;;;5063882;28;20488;-85
2022/02/18 05:51:07;;;;;;;12.80;3.70;;;10.30;99.90;;;;;;5072041;28;20463;-85
2022/02/18 05:53:34;;;;;;;7.90;3.03;;;10.40;99.90;;;;;;5071283;28;20576;-85
2022/02/18 05:56:01;;;;;;;15.67;3.93;;;10.40;99.90;;;;;;5062957;28;20979;-84
2022/02/18 05:58:28;;;;;;;13.83;3.90;;;10.40;99.90;;;;;;5063602;28;20893;-84
2022/02/18 06:00:55;;;;;;;15.00;3.43;;;10.40;99.90;;;;;;5063358;28;20849;-85
2022/02/18 06:03:22;;;;;;;13.53;3.70;;;10.50;99.90;;;;;;5062733;28;20487;-85
2022/02/18 06:05:50;;;;;;;12.53;3.50;;;10.50;99.90;;;;;;5063656;28;20455;-85
2022/02/18 06:08:17;;;;;;;11.13;3.70;;;10.50;99.90;;;;;;5062403;28;20539;-85
2022/02/18 06:10:45;;;;;;;9.77;2.83;;;10.40;99.90;;;;;;5063356;28;20459;-85
2022/02/18 06:13:12;;;;;;;12.03;4.00;;;10.40;99.90;;;;;;5063165;28;20468;-85
2022/02/18 06:15:39;;;;;;;12.90;2.97;;;10.60;99.90;;;;;;5068408;28;20940;-85
2022/02/18 06:18:06;;;;;;;18.17;4.27;;;10.50;99.90;;;;;;5065198;28;20520;-84
2022/02/18 06:20:33;;;;;;;13.33;3.97;;;10.60;99.90;;;;;;5072430;28;20475;-84
2022/02/18 06:23:01;;;;;;;15.10;3.70;;;10.60;99.90;;;;;;5070145;28;20459;-85
2022/02/18 06:25:29;;;;;;;13.43;3.50;;;10.60;99.90;;;;;;5073212;28;20440;-85
2022/02/18 06:28:04;;;;;;;14.93;3.60;;;10.50;99.90;;;;;;5063678;28;20595;-85
2022/02/18 06:30:32;;;;;;;9.40;3.77;;;10.50;99.90;;;;;;5062594;28;20419;-85
2022/02/18 06:32:59;;;;;;;10.20;4.03;;;10.50;99.90;;;;;;5063479;28;20472;-85
2022/02/18 06:35:26;;;;;;;10.57;3.10;;;10.60;99.90;;;;;;5062795;28;20522;-84
2022/02/18 06:37:53;;;;;;;13.70;4.03;;;10.70;99.90;;;;;;5063153;28;20516;-85
2022/02/18 06:40:21;;;;;;;12.47;4.10;;;10.70;99.90;;;;;;5061949;28;20450;-85
2022/02/18 06:42:48;;;;;;;13.33;4.20;;;10.70;99.90;;;;;;5061419;28;20487;-84
2022/02/18 06:45:17;;;;;;;12.43;3.40;;;10.80;99.90;;;;;;5062089;28;20422;-85
2022/02/18 06:47:46;;;;;;;13.30;3.83;;;10.80;99.90;;;;;;5062953;28;20455;-84
2022/02/18 06:50:13;;;;;;;18.93;3.70;;;10.80;99.90;;;;;;5061423;28;20444;-84
2022/02/18 06:52:40;;;;;;;13.93;3.33;;;10.80;99.90;;;;;;5063368;28;20472;-85
2022/02/18 06:55:08;;;;;;;18.53;4.77;;;10.90;99.90;;;;;;5060969;28;20463;-85
2022/02/18 06:57:40;;;;;;;14.87;4.00;;;10.80;99.90;;;;;;5062268;28;20455;-85
2022/02/18 07:00:08;;;;;;;14.23;3.47;;;10.80;99.90;;;;;;5061686;28;20458;-84
2022/02/18 07:02:35;;;;;;;17.23;4.30;;;10.80;99.90;;;;;;5061756;28;21005;-84
2022/02/18 07:05:02;;;;;;;17.23;4.93;;;10.90;99.90;;;;;;5062210;28;20972;-84
2022/02/18 07:07:29;;;;;;;12.53;3.50;;;11.00;99.90;;;;;;5061602;28;20570;-84
2022/02/18 07:09:56;;;;;;;12.90;4.43;;;11.00;99.90;;;;;;5060112;28;20411;-84
2022/02/18 07:12:25;;;;;;;14.13;4.37;;;11.00;99.90;;;;;;5063526;28;20556;-84
2022/02/18 07:14:54;;;;;;;13.83;4.33;;;11.00;99.90;;;;;;5064250;28;20440;-85
2022/02/18 07:17:21;;;;;;;13.30;4.47;;;11.10;99.90;;;;;;5064471;28;20458;-84
2022/02/18 07:19:48;;;;;;;12.97;3.10;;;11.20;99.90;;;;;;5066110;28;20444;-85
2022/02/18 07:22:15;;;;;;;14.60;4.33;;;11.20;99.90;;;;;;5066042;28;20492;-84
2022/02/18 07:24:43;;;;;;;13.73;4.50;;;11.10;99.90;;;;;;5063380;28;20527;-85
2022/02/18 07:27:10;;;;;;;13.93;3.60;;;11.20;99.90;;;;;;5060238;28;20488;-86
2022/02/18 07:29:37;;;;;;;14.30;5.47;;;11.20;99.90;;;;;;5059010;28;20514;-86
2022/02/18 07:32:06;;;;;;;12.40;3.70;;;11.30;99.90;;;;;;5060898;28;20481;-84
2022/02/18 07:34:33;;;;;;;12.60;4.00;;;11.40;99.90;;;;;;5063264;28;20427;-84
2022/02/18 07:37:00;;;;;;;7.73;3.47;;;11.30;99.90;;;;;;5062933;28;20895;-86
2022/02/18 07:39:27;;;;;;;11.30;3.40;;;11.30;99.90;;;;;;5067322;28;20486;-84
2022/02/18 07:41:54;;;;;;;10.40;3.20;;;11.30;99.90;;;;;;5070780;28;20547;-84
2022/02/18 07:44:21;;;;;;;11.23;3.50;;;11.30;99.90;;;;;;5064660;28;20471;-85
2022/02/18 07:46:49;;;;;;;10.10;2.73;;;11.20;99.90;;;;;;5064893;28;20503;-85
2022/02/18 07:49:18;;;;;;;13.90;3.57;;;11.20;99.90;;;;;;5063499;28;20458;-85
2022/02/18 07:51:45;;;;;;;12.67;3.53;;;11.20;99.90;;;;;;5061897;28;20464;-85
2022/02/18 07:54:12;;;;;;;10.40;2.53;;;11.20;99.90;;;;;;5058818;28;20456;-84
2022/02/18 07:56:39;;;;;;;10.20;2.63;;;11.20;99.90;;;;;;5059331;28;20468;-85
2022/02/18 07:59:05;;;;;;;14.53;2.57;;;11.30;99.90;;;;;;5059270;28;20531;-85
2022/02/18 08:01:32;;;;;;;7.40;3.00;;;11.30;99.90;;;;;;5063339;28;20944;-84
2022/02/18 08:03:59;;;;;;;6.20;2.20;;;11.40;99.90;;;;;;5065393;28;21079;-85
2022/02/18 08:06:27;;;;;;;12.03;2.77;;;11.40;99.90;;;;;;5062552;28;20476;-85
2022/02/18 08:08:54;;;;;;;9.53;2.57;;;11.40;99.90;;;;;;5059658;28;20850;-85
2022/02/18 08:11:21;;;;;;;9.40;2.00;;;11.50;99.90;;;;;;5060107;28;20593;-85
2022/02/18 08:13:48;;;;;;;9.70;2.50;;;11.60;99.90;;;;;;5060975;28;20806;-85
2022/02/18 08:16:15;;;;;;;8.07;2.57;;;11.70;99.90;;;;;;5062331;28;20834;-85
2022/02/18 08:18:43;;;;;;;8.27;2.20;;;11.70;99.90;;;;;;5060696;28;20476;-85
2022/02/18 08:21:10;;;;;;;10.37;2.90;;;11.80;99.90;;;;;;5068800;28;20483;-85
2022/02/18 08:23:38;;;;;;;8.97;2.07;;;11.90;99.90;;;;;;5064026;28;20470;-85
2022/02/18 08:26:06;;;;;;;6.30;2.43;;;11.90;99.90;;;;;;5062053;28;20424;-85
2022/02/18 08:28:32;;;;;;;7.67;1.80;;;12.00;99.90;;;;;;5064948;28;20552;-85
2022/02/18 08:31:00;;;;;;;7.83;2.23;;;12.10;99.90;;;;;;5071963;28;20445;-85
2022/02/18 08:33:27;;;;;;;5.60;2.10;;;12.20;99.90;;;;;;5075169;28;20485;-85
2022/02/18 08:35:54;;;;;;;7.20;2.80;;;12.20;99.90;;;;;;5075117;28;20408;-85
2022/02/18 08:38:21;;;;;;;6.43;2.90;;;12.30;99.90;;;;;;5069469;28;20486;-85
2022/02/18 08:40:49;;;;;;;5.07;1.53;;;12.30;99.90;;;;;;5066274;28;20487;-84
2022/02/18 08:43:16;;;;;;;14.63;2.33;;;12.40;99.90;;;;;;5071553;28;20469;-84
2022/02/18 08:45:44;;;;;;;4.93;1.60;;;12.50;99.90;;;;;;5061756;28;20445;-83
2022/02/18 08:48:11;;;;;;;8.37;2.20;;;12.50;99.90;;;;;;5060715;28;20790;-83
2022/02/18 08:50:38;;;;;;;7.30;1.80;;;12.60;99.90;;;;;;5061108;28;20848;-84
2022/02/18 08:53:04;;;;;;;6.40;2.43;;;12.60;99.90;;;;;;5060158;28;20526;-84
2022/02/18 08:55:32;;;;;;;7.37;1.80;;;12.70;99.90;;;;;;5060234;28;20461;-84
2022/02/18 08:58:01;;;;;;;7.27;2.20;;;12.80;99.90;;;;;;5060621;28;20535;-85
2022/02/18 09:00:28;;;;;;;4.23;1.63;;;12.80;99.90;;;;;;5059821;28;20457;-85
2022/02/18 09:27:10;;;;;;;5.53;2.30;;;13.70;99.90;;;;;;5017523;28;20490;-92
2022/02/18 09:29:40;;;;;;;4.33;1.63;;;13.70;99.90;;;;;;5021742;28;20496;-92
2022/02/18 09:32:09;;;;;;;4.43;1.00;;;13.80;99.90;;;;;;5021682;28;20541;-92
2022/02/18 09:38:11;;;;;;;7.83;1.50;;;13.90;99.90;;;;;;5014972;28;20446;-91
2022/02/18 09:40:47;;;;;;;5.63;1.40;;;13.90;99.90;;;;;;5026200;28;20466;-92
2022/02/18 09:43:31;;;;;;;6.80;1.53;;;14.10;99.90;;;;;;5024733;28;20518;-90
2022/02/18 09:46:05;;;;;;;4.03;1.70;;;14.10;99.90;;;;;;5022090;28;20455;-90
2022/02/18 09:48:35;;;;;;;3.93;1.33;;;14.10;99.90;;;;;;5020893;28;20509;-90
2022/02/18 09:51:07;;;;;;;8.83;1.20;;;14.20;99.90;;;;;;5025798;28;20414;-91
2022/02/18 09:53:38;;;;;;;4.80;1.47;;;14.10;99.90;;;;;;5026808;28;21028;-91
2022/02/18 09:56:09;;;;;;;4.50;1.17;;;14.30;99.90;;;;;;5028159;28;20437;-90
2022/02/18 09:58:50;;;;;;;4.10;1.23;;;14.40;99.90;;;;;;5024982;28;20446;-91
2022/02/18 10:01:36;;;;;;;3.30;1.30;;;14.40;99.90;;;;;;5022078;28;20530;-91
2022/02/18 10:04:13;;;;;;;4.37;1.60;;;14.60;99.90;;;;;;5021357;28;20456;-90
2022/02/18 10:06:49;;;;;;;5.90;1.20;;;14.70;99.90;;;;;;5034013;28;20448;-90
2022/02/18 10:09:19;;;;;;;5.00;1.30;;;14.80;99.90;;;;;;5039872;28;20474;-91
2022/02/18 10:20:33;;;;;;;6.80;1.50;;;15.30;99.90;;;;;;5037638;28;20469;-92
2022/02/18 10:23:11;;;;;;;5.47;1.50;;;15.20;99.90;;;;;;5033105;28;20466;-92
2022/02/18 10:25:57;;;;;;;4.63;1.10;;;15.40;99.90;;;;;;5033283;28;20809;-91
2022/02/18 10:28:26;;;;;;;4.20;1.00;;;15.50;99.90;;;;;;5029831;28;20481;-90
2022/02/18 10:31:04;;;;;;;4.90;1.43;;;15.60;99.90;;;;;;5025211;28;20462;-91
2022/02/18 10:34:00;;;;;;;3.30;1.33;;;15.70;99.90;;;;;;5025539;28;20501;-92
2022/02/18 10:46:11;;;;;;;5.50;1.50;;;15.90;99.90;;;;;;4977056;28;20400;-90
2022/02/18 10:49:39;;;;;;;;;;;;;;;;;;;;;
2022/02/18 10:55:27;;;;;;;3.63;1.13;;;16.20;99.90;;;;;;4958712;28;20435;-91
2022/02/18 11:01:21;;;;;;;6.00;1.20;;;16.60;99.90;;;;;;4974447;29;20449;-90
2022/02/18 11:03:53;;;;;;;5.23;1.20;;;16.70;99.90;;;;;;5005892;28;20473;-91
2022/02/18 11:06:26;;;;;;;7.00;1.97;;;16.80;99.90;;;;;;5033729;28;20473;-91
2022/02/18 11:08:58;;;;;;;5.20;1.90;;;17.00;99.90;;;;;;5037191;28;20470;-89
2022/02/18 11:11:54;;;;;;;4.97;1.33;;;17.00;99.90;;;;;;5030269;28;20429;-92
2022/02/18 11:14:33;;;;;;;3.53;1.40;;;17.10;99.90;;;;;;5027394;28;20472;-90
2022/02/18 11:17:23;;;;;;;7.40;1.70;;;17.20;99.90;;;;;;5031764;28;20440;-91
2022/02/18 11:25:58;;;;;;;4.93;1.40;;;17.40;99.90;;;;;;5029911;28;20454;-91
2022/02/18 11:28:38;;;;;;;7.30;1.80;;;17.40;99.90;;;;;;4997010;28;20468;-91
2022/02/18 11:31:13;;;;;;;9.20;1.40;;;17.40;99.90;;;;;;5030714;28;20842;-90
2022/02/18 11:36:40;;;;;;;4.23;1.30;;;17.50;99.90;;;;;;5063732;22;20496;-91
2022/02/18 11:39:40;;;;;;;5.73;1.40;;;17.20;99.90;;;;;;5046692;28;20413;-92
2022/02/18 11:42:41;;;;;;;3.53;1.27;;;17.20;99.80;;;;;;5044947;28;20548;-90
2022/02/18 11:45:22;;;;;;;7.27;2.00;;;17.10;99.80;;;;;;5023827;28;20390;-91
2022/02/18 11:48:14;;;;;;;6.50;1.73;;;17.20;99.80;;;;;;5027887;28;20449;-91
2022/02/18 11:50:56;;;;;;;4.67;1.63;;;17.20;99.70;;;;;;5033119;28;20454;-90
2022/02/18 11:54:04;;;;;;;6.30;1.87;;;17.30;99.50;;;;;;5031194;28;20515;-91
2022/02/18 12:00:34;;;;;;;5.03;1.80;;;17.30;99.30;;;;;;5010645;28;20447;-91
2022/02/18 12:03:28;;;;;;;4.93;1.37;;;17.30;99.60;;;;;;5007184;28;20492;-90
2022/02/18 12:09:14;;;;;;;2.83;1.20;;;17.30;99.60;;;;;;5033262;28;20498;-92
2022/02/18 12:12:08;;;;;;;4.07;1.10;;;17.50;99.20;;;;;;5037729;28;20489;-92
2022/02/18 12:15:19;;;;;;;;;;;;;;;;;;;;;
2022/02/18 12:18:03;;;;;;;8.20;1.73;;;17.50;99.00;;;;;;5027109;28;20427;-90
2022/02/18 12:20:43;;;;;;;8.03;3.83;;;17.70;98.70;;;;;;5025205;28;20445;-91
2022/02/18 12:26:35;;;;;;;6.27;1.57;;;17.60;98.60;;;;;;5026455;28;20457;-91
2022/02/18 12:29:35;;;;;;;4.00;1.20;;;17.50;98.10;;;;;;5022696;28;20515;-91
2022/02/18 12:32:14;;;;;;;3.37;1.17;;;17.50;98.40;;;;;;5027267;28;20425;-91
2022/02/18 12:35:34;;;;;;;5.17;1.40;;;17.40;98.40;;;;;;5027458;28;20489;-91
2022/02/18 12:38:11;;;;;;;3.70;1.37;;;17.40;98.60;;;;;;4989880;28;20458;-91
2022/02/18 12:40:58;;;;;;;9.73;2.40;;;17.50;98.50;;;;;;5024742;28;20458;-91
2022/02/18 12:43:41;;;;;;;4.30;1.20;;;17.60;98.30;;;;;;5024555;28;20470;-90
2022/02/18 12:46:23;;;;;;;4.50;1.20;;;17.60;98.20;;;;;;5029564;28;20453;-90
2022/02/18 12:48:58;;;;;;;6.50;1.27;;;17.50;98.50;;;;;;5025270;28;20488;-90
2022/02/18 12:52:02;;;;;;;;;;;;;;;;;;;;;
2022/02/18 12:54:53;;;;;;;4.00;1.67;;;17.70;98.60;;;;;;5023569;28;20459;-90
2022/02/18 12:57:35;;;;;;;3.80;1.37;;;17.70;98.70;;;;;;5027189;28;20493;-91
2022/02/18 13:00:11;;;;;;;5.17;1.73;;;17.60;98.80;;;;;;5028134;28;20462;-91
2022/02/18 13:03:00;;;;;;;5.80;1.17;;;17.60;99.00;;;;;;5033318;28;20493;-91
2022/02/18 13:05:52;;;;;;;6.93;1.80;;;17.50;98.90;;;;;;5037228;28;20441;-90
2022/02/18 13:11:36;;;;;;;3.80;1.10;;;17.30;99.10;;;;;;5010515;28;20404;-91
2022/02/18 13:14:22;;;;;;;3.57;1.37;;;17.20;98.80;;;;;;5026344;28;20478;-92
2022/02/18 13:19:48;;;;;;;4.10;1.13;;;17.20;98.70;;;;;;5028717;28;20414;-92
2022/02/18 13:22:41;;;;;;;3.80;1.03;;;17.20;98.50;;;;;;5027344;28;20446;-91
2022/02/18 13:25:37;;;;;;;4.00;1.30;;;17.30;98.40;;;;;;5025068;28;20454;-91
2022/02/18 13:34:14;;;;;;;4.70;1.20;;;17.40;98.50;;;;;;5022576;28;20512;-91
2022/02/18 13:36:42;;;;;;;3.27;0.97;;;17.40;98.10;;;;;;5036260;28;20429;-92
2022/02/18 13:39:21;;;;;;;7.63;1.23;;;17.30;98.10;;;;;;5032311;28;20451;-91
2022/02/18 13:42:27;;;;;;;3.43;1.13;;;17.30;98.10;;;;;;5028663;28;20435;-92
2022/02/18 13:45:18;;;;;;;3.00;1.00;;;17.40;98.20;;;;;;5030432;28;20430;-91
2022/02/18 13:47:49;;;;;;;2.73;0.90;;;17.30;98.10;;;;;;5028579;28;20955;-90
2022/02/18 13:50:23;;;;;;;4.37;1.63;;;17.40;98.20;;;;;;5030785;28;20452;-91
2022/02/18 13:52:51;;;;;;;6.00;1.20;;;17.40;98.10;;;;;;5035822;28;20471;-91
2022/02/18 13:55:27;;;;;;;7.17;1.50;;;17.40;98.10;;;;;;5034835;28;20432;-92
2022/02/18 13:57:59;;;;;;;3.20;0.90;;;17.40;98.20;;;;;;5031496;28;20446;-92
2022/02/18 14:00:49;;;;;;;3.37;1.07;;;17.40;98.20;;;;;;5028043;28;20509;-91
2022/02/18 14:03:29;;;;;;;6.13;1.30;;;17.40;98.00;;;;;;5028998;28;20470;-91
2022/02/18 14:06:20;;;;;;;6.30;1.50;;;17.40;98.10;;;;;;5032001;28;20381;-91
2022/02/18 14:09:06;;;;;;;5.27;1.40;;;17.40;98.10;;;;;;5035175;28;20450;-92
2022/02/18 14:11:53;;;;;;;4.10;1.00;;;17.50;97.70;;;;;;5037157;28;20425;-90
2022/02/18 14:14:26;;;;;;;3.30;1.00;;;17.30;97.50;;;;;;5027179;28;20448;-92
2022/02/18 14:17:06;;;;;;;4.40;1.27;;;17.30;97.40;;;;;;5030304;28;20422;-91
2022/02/18 14:19:59;;;;;;;3.43;1.03;;;17.10;97.60;;;;;;5029031;28;20419;-92
2022/02/18 14:22:31;;;;;;;4.40;1.27;;;17.20;97.70;;;;;;5028911;28;20830;-92
2022/02/18 14:25:34;;;;;;;6.30;1.37;;;17.20;97.50;;;;;;5030220;28;20491;-92
2022/02/18 14:45:00;;;;;;;4.80;1.60;;;17.20;97.60;;;;;;5177191;22;20505;-91
2022/02/18 14:48:19;;;;;;;;;;;;;;;;;;;;;
2022/02/18 14:51:26;;;;;;;4.70;1.10;;;17.20;97.30;;;;;;5055192;28;20781;-91
2022/02/18 14:57:49;;;;;;;4.60;1.30;;;17.20;97.60;;;;;;5041337;28;20437;-93
2022/02/18 15:00:30;;;;;;;7.20;2.00;;;17.20;97.80;;;;;;5056987;28;20543;-91